createdAt,value
2023-01-17T00:01:09.995Z,98032.06
2023-01-17T00:04:53.202Z,98023.90
2023-01-17T00:08:35.930Z,98022.65
2023-01-17T00:12:20.731Z,98025.34
2023-01-17T00:16:04.214Z,98021.57
2023-01-17T00:19:47.517Z,98016.54
2023-01-17T00:23:30.678Z,98006.23
2023-01-17T00:27:13.863Z,97997.92
2023-01-17T00:30:38.484Z,97993.38
2023-01-17T00:34:02.505Z,97988.42
2023-01-17T00:37:26.977Z,97984.27
2023-01-17T00:40:51.393Z,97977.14
2023-01-17T00:44:34.487Z,97976.38
2023-01-17T00:48:17.835Z,97973.38
2023-01-17T00:52:01.076Z,97963.90
2023-01-17T00:55:44.322Z,97959.91
2023-01-17T00:59:27.403Z,97953.20
2023-01-17T01:03:10.616Z,97947.27
2023-01-17T01:06:53.593Z,97943.95
2023-01-17T01:10:36.385Z,97942.02
2023-01-17T01:14:19.414Z,97929.95
2023-01-17T01:18:02.826Z,97922.27
2023-01-17T01:21:46.099Z,97926.23
2023-01-17T01:25:29.315Z,97937.86
2023-01-17T01:29:12.937Z,97927.84
2023-01-17T01:32:55.790Z,97922.77
2023-01-17T01:36:40.749Z,97919.45
2023-01-17T01:40:25.584Z,97911.90
2023-01-17T01:44:21.011Z,97909.11
2023-01-17T01:48:14.531Z,97900.91
2023-01-17T01:52:02.608Z,97891.23
2023-01-17T01:55:38.638Z,97890.75
2023-01-17T01:59:23.470Z,97879.23
2023-01-17T02:03:08.418Z,97867.91
2023-01-17T02:06:49.977Z,97865.44
2023-01-17T02:10:34.767Z,97865.86
2023-01-17T02:14:19.441Z,97859.27
2023-01-17T02:18:09.972Z,97860.66
2023-01-17T02:22:12.605Z,97863.27
2023-01-17T02:26:12.137Z,97864.61
2023-01-17T02:30:02.746Z,97856.23
2023-01-17T02:33:50.210Z,97854.48
2023-01-17T02:37:37.668Z,97844.16
2023-01-17T02:41:12.209Z,97846.42
2023-01-17T02:44:45.846Z,97853.34
2023-01-17T02:48:30.662Z,97846.79
2023-01-17T02:52:27.188Z,97836.47
2023-01-17T02:56:12.137Z,97829.88
2023-01-17T03:00:11.831Z,97835.02
2023-01-17T03:04:02.116Z,97832.20
2023-01-17T03:07:49.721Z,97828.58
2023-01-17T03:11:34.441Z,97833.42
2023-01-17T03:15:19.091Z,97833.58
2023-01-17T03:19:03.942Z,97832.36
2023-01-17T03:22:48.699Z,97837.48
2023-01-17T03:26:33.671Z,97841.67
2023-01-17T03:30:18.497Z,97825.46
2023-01-17T03:34:04.901Z,97822.83
2023-01-17T03:37:51.216Z,97820.63
2023-01-17T03:41:35.786Z,97822.34
2023-01-17T03:45:20.697Z,97816.56
2023-01-17T03:49:05.407Z,97815.89
2023-01-17T03:52:50.334Z,97817.34
2023-01-17T03:56:27.905Z,97807.54
2023-01-17T04:00:13.060Z,97811.34
2023-01-17T04:03:58.010Z,97818.46
2023-01-17T04:07:17.628Z,97815.05
2023-01-17T04:11:02.293Z,97813.43
2023-01-17T04:14:46.919Z,97808.18
2023-01-17T04:18:32.569Z,97806.23
2023-01-17T04:22:18.623Z,97808.63
2023-01-17T04:26:03.378Z,97805.63
2023-01-17T04:29:48.061Z,97810.74
2023-01-17T04:33:32.773Z,97815.26
2023-01-17T04:37:17.393Z,97816.28
2023-01-17T04:40:55.508Z,97811.04
2023-01-17T04:44:40.294Z,97817.74
2023-01-17T04:48:02.308Z,97822.69
2023-01-17T04:51:47.679Z,97828.53
2023-01-17T04:55:32.319Z,97833.69
2023-01-17T04:59:17.080Z,97833.16
2023-01-17T05:03:01.908Z,97834.58
2023-01-17T05:06:46.806Z,97836.33
2023-01-17T05:10:20.422Z,97840.38
2023-01-17T05:13:58.103Z,97845.65
2023-01-17T05:17:58.013Z,97854.36
2023-01-17T05:21:42.791Z,97856.64
2023-01-17T05:25:26.430Z,97855.69
2023-01-17T05:29:11.190Z,97852.88
2023-01-17T05:32:56.046Z,97849.64
2023-01-17T05:36:29.392Z,97851.08
2023-01-17T05:40:14.290Z,97845.05
2023-01-17T05:43:59.727Z,97852.14
2023-01-17T05:47:44.325Z,97851.05
2023-01-17T05:51:29.152Z,97859.15
2023-01-17T05:55:13.950Z,97860.42
2023-01-17T05:58:58.681Z,97852.05
2023-01-17T06:02:43.557Z,97860.31
2023-01-17T06:06:21.714Z,97870.48
2023-01-17T06:09:49.676Z,97878.97
2023-01-17T06:13:46.435Z,97879.40
2023-01-17T06:17:31.196Z,97881.73
2023-01-17T06:21:15.879Z,97888.75
2023-01-17T06:25:00.714Z,97890.10
2023-01-17T06:28:45.454Z,97894.93
2023-01-17T06:32:30.254Z,97897.22
2023-01-17T06:36:07.984Z,97886.98
2023-01-17T06:39:46.072Z,97884.95
2023-01-17T06:43:31.199Z,97888.83
2023-01-17T06:47:16.448Z,97900.20
2023-01-17T06:51:01.549Z,97897.50
2023-01-17T06:54:47.701Z,97902.75
2023-01-17T06:58:32.467Z,97901.23
2023-01-17T07:02:18.494Z,97893.32
2023-01-17T07:06:03.264Z,97898.85
2023-01-17T07:09:47.986Z,97903.09
2023-01-17T07:13:35.449Z,97909.60
2023-01-17T07:17:18.429Z,97912.29
2023-01-17T07:21:03.182Z,97913.34
2023-01-17T07:24:46.804Z,97929.50
2023-01-17T07:28:31.511Z,97924.31
2023-01-17T07:32:16.228Z,97932.44
2023-01-17T07:36:00.887Z,97929.99
2023-01-17T07:39:46.418Z,97922.67
2023-01-17T07:43:36.026Z,97908.11
2023-01-17T07:47:21.810Z,97903.91
2023-01-17T07:51:07.086Z,97907.08
2023-01-17T07:54:51.988Z,97917.98
2023-01-17T07:58:29.126Z,97925.77
2023-01-17T08:02:14.008Z,97929.51
2023-01-17T08:05:57.899Z,97938.46
2023-01-17T08:09:41.461Z,97933.14
2023-01-17T08:13:28.431Z,97932.21
2023-01-17T08:17:12.559Z,97943.53
2023-01-17T08:20:56.119Z,97947.14
2023-01-17T08:24:39.712Z,97950.35
2023-01-17T08:28:13.487Z,97953.27
2023-01-17T08:31:59.115Z,97952.27
2023-01-17T08:35:44.027Z,97946.67
2023-01-17T08:39:28.764Z,97941.81
2023-01-17T08:43:13.775Z,97940.91
2023-01-17T08:46:58.612Z,97938.11
2023-01-17T08:50:43.493Z,97924.84
2023-01-17T08:54:28.455Z,97923.19
2023-01-17T08:58:13.216Z,97925.53
2023-01-17T09:02:01.192Z,97921.30
2023-01-17T09:05:46.353Z,97922.16
2023-01-17T09:09:33.152Z,97921.35
2023-01-17T09:13:18.399Z,97928.03
2023-01-17T09:16:55.907Z,97930.16
2023-01-17T09:20:29.603Z,97928.46
2023-01-17T09:24:14.361Z,97924.23
2023-01-17T09:27:37.483Z,97935.36
2023-01-17T09:31:22.281Z,97936.64
2023-01-17T09:35:00.041Z,97937.77
2023-01-17T09:38:44.948Z,97951.27
2023-01-17T09:42:29.788Z,97953.20
2023-01-17T09:46:14.514Z,97952.08
2023-01-17T09:50:11.122Z,97951.27
2023-01-17T09:53:55.863Z,97955.08
2023-01-17T09:57:44.076Z,97952.46
2023-01-17T10:01:37.937Z,97954.71
2023-01-17T10:05:31.422Z,97953.85
2023-01-17T10:09:43.250Z,97960.95
2023-01-17T10:13:37.411Z,97964.74
2023-01-17T10:17:28.032Z,97960.65
2023-01-17T10:21:18.570Z,97961.64
2023-01-17T10:25:11.923Z,97959.18
2023-01-17T10:28:50.752Z,97959.80
2023-01-17T10:32:41.130Z,97962.27
2023-01-17T10:36:28.670Z,97973.70
2023-01-17T10:40:04.238Z,97973.63
2023-01-17T10:44:00.708Z,97975.23
2023-01-17T10:47:51.058Z,97973.73
2023-01-17T10:51:28.422Z,97975.05
2023-01-17T10:55:11.221Z,97976.73
2023-01-17T10:58:55.995Z,97977.42
2023-01-17T11:02:41.865Z,97983.05
2023-01-17T11:06:28.542Z,97982.92
2023-01-17T11:10:13.305Z,97981.39
2023-01-17T11:14:03.605Z,97984.48
2023-01-17T11:18:00.163Z,97991.76
2023-01-17T11:21:47.665Z,97994.41
2023-01-17T11:25:32.300Z,97996.53
2023-01-17T11:29:19.839Z,97995.64
2023-01-17T11:33:31.744Z,97992.97
2023-01-17T11:37:04.763Z,97995.95
2023-01-17T11:40:50.566Z,97992.77
2023-01-17T11:44:35.348Z,97989.41
2023-01-17T11:48:20.186Z,97990.10
2023-01-17T11:52:07.725Z,97994.62
2023-01-17T11:55:52.527Z,97999.65
2023-01-17T11:59:55.081Z,98001.70
2023-01-17T12:03:45.217Z,98001.49
2023-01-17T12:07:32.459Z,98004.64
2023-01-17T12:11:18.527Z,98006.50
2023-01-17T12:15:03.249Z,98001.82
2023-01-17T12:19:01.059Z,98001.14
2023-01-17T12:23:09.625Z,98001.59
2023-01-17T12:27:03.384Z,98003.95
2023-01-17T12:30:51.501Z,97992.40
2023-01-17T12:34:40.136Z,97989.84
2023-01-17T12:38:32.518Z,97984.30
2023-01-17T12:42:16.280Z,97985.33
2023-01-17T12:46:06.708Z,97983.13
2023-01-17T12:49:54.421Z,97985.98
2023-01-17T12:53:39.273Z,97974.26
2023-01-17T12:57:26.967Z,97979.32
2023-01-17T13:01:14.762Z,97978.98
2023-01-17T13:04:59.616Z,97989.23
2023-01-17T13:08:43.071Z,97999.86
2023-01-17T13:12:27.802Z,98003.98
2023-01-17T13:16:15.754Z,97998.36
2023-01-17T13:19:41.750Z,97992.67
2023-01-17T13:23:26.509Z,98004.33
2023-01-17T13:27:14.101Z,98001.12
2023-01-17T13:30:54.278Z,97983.55
2023-01-17T13:34:42.359Z,97978.91
2023-01-17T13:38:31.147Z,97991.00
2023-01-17T13:42:23.642Z,97989.69
2023-01-17T13:46:08.461Z,97990.63
2023-01-17T13:49:56.845Z,97988.76
2023-01-17T13:53:41.368Z,97987.77
2023-01-17T13:57:29.260Z,97989.69
2023-01-17T14:01:16.185Z,97994.57
2023-01-17T14:05:03.991Z,98003.66
2023-01-17T14:08:54.417Z,98000.76
2023-01-17T14:12:40.480Z,98003.48
2023-01-17T14:16:28.137Z,98006.80
2023-01-17T14:20:05.509Z,98010.74
2023-01-17T14:24:02.031Z,98014.16
2023-01-17T14:27:49.557Z,98024.70
2023-01-17T14:31:34.388Z,98030.98
2023-01-17T14:35:19.081Z,98042.11
2023-01-17T14:39:04.342Z,98049.17
2023-01-17T14:42:50.968Z,98047.58
2023-01-17T14:46:47.618Z,98057.89
2023-01-17T14:50:20.814Z,98071.69
2023-01-17T14:54:08.651Z,98073.85
2023-01-17T14:57:56.024Z,98089.09
2023-01-17T15:01:41.134Z,98092.56
2023-01-17T15:05:29.027Z,98087.34
2023-01-17T15:09:16.643Z,98101.89
2023-01-17T15:13:01.516Z,98120.09
2023-01-17T15:16:46.191Z,98130.29
2023-01-17T15:20:31.257Z,98128.77
2023-01-17T15:24:17.304Z,98127.98
2023-01-17T15:27:54.761Z,98133.27
2023-01-17T15:31:48.630Z,98139.92
2023-01-17T15:35:36.205Z,98152.61
2023-01-17T15:39:21.392Z,98159.44
2023-01-17T15:43:06.659Z,98156.65
2023-01-17T15:47:12.518Z,98148.84
2023-01-17T15:51:03.245Z,98158.56
2023-01-17T15:54:28.114Z,98165.81
2023-01-17T15:58:16.649Z,98192.12
2023-01-17T16:02:02.528Z,98201.27
2023-01-17T16:05:32.287Z,98219.36
2023-01-17T16:09:16.903Z,98230.81
2023-01-17T16:13:02.738Z,98239.88
2023-01-17T16:16:50.532Z,98236.95
2023-01-17T16:20:36.515Z,98231.29
2023-01-17T16:24:21.055Z,98235.70
2023-01-17T16:28:05.947Z,98244.95
2023-01-17T16:31:50.693Z,98251.64
2023-01-17T16:35:35.291Z,98251.02
2023-01-17T16:39:21.208Z,98251.88
2023-01-17T16:43:07.347Z,98251.81
2023-01-17T16:46:52.424Z,98254.36
2023-01-17T16:50:37.132Z,98257.02
2023-01-17T16:54:21.907Z,98252.58
2023-01-17T16:58:07.081Z,98255.66
2023-01-17T17:01:54.292Z,98251.02
2023-01-17T17:05:33.285Z,98255.42
2023-01-17T17:09:06.771Z,98258.19
2023-01-17T17:12:52.860Z,98256.44
2023-01-17T17:16:37.736Z,98258.07
2023-01-17T17:20:25.098Z,98259.01
2023-01-17T17:24:03.120Z,98249.75
2023-01-17T17:27:47.962Z,98247.53
2023-01-17T17:31:43.094Z,98244.11
2023-01-17T17:35:28.119Z,98240.54
2023-01-17T17:39:12.968Z,98242.27
2023-01-17T17:42:58.714Z,98250.27
2023-01-17T17:46:43.635Z,98250.83
2023-01-17T17:50:29.022Z,98247.41
2023-01-17T17:54:14.560Z,98245.20
2023-01-17T17:58:00.869Z,98244.71
2023-01-17T18:01:34.866Z,98241.15
2023-01-17T18:05:19.784Z,98241.91
2023-01-17T18:09:04.649Z,98246.15
2023-01-17T18:12:49.326Z,98237.74
2023-01-17T18:16:43.155Z,98230.15
2023-01-17T18:20:27.771Z,98227.36
2023-01-17T18:24:06.698Z,98227.02
2023-01-17T18:27:56.287Z,98227.67
2023-01-17T18:31:44.661Z,98240.42
2023-01-17T18:35:29.305Z,98244.82
2023-01-17T18:39:16.919Z,98243.93
2023-01-17T18:43:02.247Z,98244.49
2023-01-17T18:46:47.001Z,98240.29
2023-01-17T18:50:31.775Z,98243.92
2023-01-17T18:54:18.110Z,98237.39
2023-01-17T18:58:04.091Z,98234.89
2023-01-17T19:01:55.080Z,98244.03
2023-01-17T19:05:43.385Z,98248.73
2023-01-17T19:09:18.690Z,98247.76
2023-01-17T19:13:05.320Z,98256.11
2023-01-17T19:16:41.782Z,98261.31
2023-01-17T19:20:19.583Z,98277.70
2023-01-17T19:24:04.565Z,98303.49
2023-01-17T19:27:50.547Z,98314.88
2023-01-17T19:31:41.761Z,98322.98
2023-01-17T19:35:26.611Z,98327.91
2023-01-17T19:39:11.554Z,98339.88
2023-01-17T19:42:56.291Z,98348.14
2023-01-17T19:46:42.116Z,98350.07
2023-01-17T19:50:38.930Z,98358.11
2023-01-17T19:54:24.376Z,98360.84
2023-01-17T19:58:07.776Z,98361.96
2023-01-17T20:01:53.594Z,98363.09
2023-01-17T20:05:38.713Z,98365.08
2023-01-17T20:09:00.613Z,98370.16
2023-01-17T20:12:45.419Z,98369.72
2023-01-17T20:16:29.023Z,98372.80
2023-01-17T20:20:12.367Z,98377.23
2023-01-17T20:23:58.058Z,98377.30
2023-01-17T20:27:41.536Z,98387.41
2023-01-17T20:31:27.720Z,98395.67
2023-01-17T20:35:14.168Z,98393.88
2023-01-17T20:39:04.974Z,98393.19
2023-01-17T20:42:49.768Z,98387.86
2023-01-17T20:46:34.561Z,98385.83
2023-01-17T20:50:20.185Z,98383.98
2023-01-17T20:54:05.399Z,98383.43
2023-01-17T20:57:50.275Z,98380.27
2023-01-17T21:01:35.201Z,98381.52
2023-01-17T21:05:25.873Z,98378.77
2023-01-17T21:09:14.587Z,98371.94
2023-01-17T21:12:59.486Z,98378.44
2023-01-17T21:16:44.191Z,98379.75
2023-01-17T21:20:29.078Z,98389.30
2023-01-17T21:24:06.635Z,98391.73
2023-01-17T21:27:51.483Z,98393.29
2023-01-17T21:31:45.393Z,98389.90
2023-01-17T21:35:30.335Z,98399.09
2023-01-17T21:39:14.969Z,98401.33
2023-01-17T21:42:59.667Z,98402.27
2023-01-17T21:46:44.460Z,98406.67
2023-01-17T21:50:33.663Z,98405.71
2023-01-17T21:54:00.847Z,98407.20
2023-01-17T21:57:43.996Z,98403.82
2023-01-17T22:01:31.852Z,98402.08
2023-01-17T22:05:16.978Z,98399.83
2023-01-17T22:09:01.886Z,98394.39
2023-01-17T22:12:46.801Z,98385.27
2023-01-17T22:16:38.673Z,98382.08
2023-01-17T22:20:23.348Z,98384.21
2023-01-17T22:24:11.131Z,98383.36
2023-01-17T22:27:56.035Z,98383.59
2023-01-17T22:31:48.065Z,98380.46
2023-01-17T22:35:21.413Z,98385.57
2023-01-17T22:39:06.078Z,98390.69
2023-01-17T22:42:50.859Z,98391.46
2023-01-17T22:46:41.631Z,98395.05
2023-01-17T22:50:26.494Z,98392.98
2023-01-17T22:54:12.966Z,98390.91
2023-01-17T22:57:50.743Z,98392.52
2023-01-17T23:01:35.863Z,98392.63
2023-01-17T23:05:20.910Z,98390.45
2023-01-17T23:09:06.705Z,98397.45
2023-01-17T23:12:51.790Z,98392.98
2023-01-17T23:16:34.827Z,98383.93
2023-01-17T23:20:25.228Z,98386.52
2023-01-17T23:23:50.095Z,98387.30
2023-01-17T23:27:33.842Z,98384.82
2023-01-17T23:31:18.775Z,98383.52
2023-01-17T23:35:03.091Z,98385.40
2023-01-17T23:38:47.659Z,98384.75
2023-01-17T23:42:30.768Z,98386.35
2023-01-17T23:46:15.487Z,98380.25
2023-01-17T23:50:00.187Z,98375.86
2023-01-17T23:53:45.040Z,98369.34
2023-01-17T23:57:29.936Z,98368.23
